sensor_id;sensor_type;location;lat;lon;timestamp;P1;durP1;ratioP1;P2;durP2;ratioP2
65597;SDS011;52267;51.984;20.956;2023-02-05T00:01:32;20.10;;;9.60;;
65597;SDS011;52267;51.984;20.956;2023-02-05T00:03:59;25.40;;;11.10;;
65597;SDS011;52267;51.984;20.956;2023-02-05T00:06:27;22.60;;;9.50;;
65597;SDS011;52267;51.984;20.956;2023-02-05T00:08:55;23.80;;;11.20;;
65597;SDS011;52267;51.984;20.956;2023-02-05T00:11:23;25.80;;;11.90;;
65597;SDS011;52267;51.984;20.956;2023-02-05T00:13:52;23.80;;;10.20;;
65597;SDS011;52267;51.984;20.956;2023-02-05T00:16:21;24.90;;;11.20;;
65597;SDS011;52267;51.984;20.956;2023-02-05T00:18:50;25.60;;;11.50;;
65597;SDS011;52267;51.984;20.956;2023-02-05T00:21:18;23.30;;;11.40;;
65597;SDS011;52267;51.984;20.956;2023-02-05T00:23:46;24.00;;;12.60;;
65597;SDS011;52267;51.984;20.956;2023-02-05T00:26:14;28.30;;;11.90;;
65597;SDS011;52267;51.984;20.956;2023-02-05T00:28:42;25.90;;;11.80;;
65597;SDS011;52267;51.984;20.956;2023-02-05T00:31:15;25.10;;;10.50;;
65597;SDS011;52267;51.984;20.956;2023-02-05T00:33:46;23.10;;;10.10;;
65597;SDS011;52267;51.984;20.956;2023-02-05T00:36:14;22.10;;;9.70;;
65597;SDS011;52267;51.984;20.956;2023-02-05T00:38:43;20.50;;;10.20;;
65597;SDS011;52267;51.984;20.956;2023-02-05T00:41:11;21.40;;;9.50;;
65597;SDS011;52267;51.984;20.956;2023-02-05T00:43:39;25.90;;;11.00;;
65597;SDS011;52267;51.984;20.956;2023-02-05T00:46:08;23.80;;;10.10;;
65597;SDS011;52267;51.984;20.956;2023-02-05T00:48:37;25.20;;;10.30;;
65597;SDS011;52267;51.984;20.956;2023-02-05T00:51:04;27.10;;;11.10;;
65597;SDS011;52267;51.984;20.956;2023-02-05T00:53:32;21.20;;;11.20;;
65597;SDS011;52267;51.984;20.956;2023-02-05T00:55:59;17.90;;;10.30;;
65597;SDS011;52267;51.984;20.956;2023-02-05T00:58:27;20.80;;;12.00;;
65597;SDS011;52267;51.984;20.956;2023-02-05T01:00:56;30.40;;;13.40;;
65597;SDS011;52267;51.984;20.956;2023-02-05T01:03:23;25.60;;;12.70;;
65597;SDS011;52267;51.984;20.956;2023-02-05T01:05:50;22.60;;;12.50;;
65597;SDS011;52267;51.984;20.956;2023-02-05T01:08:18;26.40;;;13.90;;
65597;SDS011;52267;51.984;20.956;2023-02-05T01:10:47;30.20;;;14.00;;
65597;SDS011;52267;51.984;20.956;2023-02-05T01:13:16;28.70;;;13.00;;
65597;SDS011;52267;51.984;20.956;2023-02-05T01:15:44;26.20;;;12.60;;
65597;SDS011;52267;51.984;20.956;2023-02-05T01:18:12;33.00;;;14.00;;
65597;SDS011;52267;51.984;20.956;2023-02-05T01:20:40;21.00;;;13.10;;
65597;SDS011;52267;51.984;20.956;2023-02-05T01:23:08;30.30;;;13.10;;
65597;SDS011;52267;51.984;20.956;2023-02-05T01:25:35;28.60;;;11.80;;
65597;SDS011;52267;51.984;20.956;2023-02-05T01:28:03;34.40;;;13.00;;
65597;SDS011;52267;51.984;20.956;2023-02-05T01:30:32;27.40;;;12.70;;
65597;SDS011;52267;51.984;20.956;2023-02-05T01:33:01;27.40;;;11.90;;
65597;SDS011;52267;51.984;20.956;2023-02-05T01:35:28;27.30;;;11.80;;
65597;SDS011;52267;51.984;20.956;2023-02-05T01:37:56;22.90;;;11.50;;
65597;SDS011;52267;51.984;20.956;2023-02-05T01:40:23;26.00;;;10.20;;
65597;SDS011;52267;51.984;20.956;2023-02-05T01:42:50;27.70;;;12.10;;
65597;SDS011;52267;51.984;20.956;2023-02-05T01:47:53;22.30;;;9.60;;
65597;SDS011;52267;51.984;20.956;2023-02-05T01:50:26;21.20;;;9.80;;
65597;SDS011;52267;51.984;20.956;2023-02-05T01:52:57;21.20;;;10.50;;
65597;SDS011;52267;51.984;20.956;2023-02-05T01:55:27;25.20;;;11.80;;
65597;SDS011;52267;51.984;20.956;2023-02-05T01:57:55;18.20;;;9.50;;
65597;SDS011;52267;51.984;20.956;2023-02-05T02:00:23;22.40;;;11.00;;
65597;SDS011;52267;51.984;20.956;2023-02-05T02:02:50;22.80;;;11.00;;
65597;SDS011;52267;51.984;20.956;2023-02-05T02:05:18;21.90;;;10.00;;
65597;SDS011;52267;51.984;20.956;2023-02-05T02:07:45;19.80;;;10.40;;
65597;SDS011;52267;51.984;20.956;2023-02-05T02:10:14;21.30;;;11.80;;
65597;SDS011;52267;51.984;20.956;2023-02-05T02:12:45;19.80;;;9.40;;
65597;SDS011;52267;51.984;20.956;2023-02-05T02:15:21;19.70;;;8.80;;
65597;SDS011;52267;51.984;20.956;2023-02-05T02:17:54;23.10;;;11.30;;
65597;SDS011;52267;51.984;20.956;2023-02-05T02:29:09;23.80;;;10.90;;
65597;SDS011;52267;51.984;20.956;2023-02-05T02:31:59;13.80;;;6.70;;
65597;SDS011;52267;51.984;20.956;2023-02-05T02:34:55;19.30;;;8.10;;
65597;SDS011;52267;51.984;20.956;2023-02-05T02:37:48;16.40;;;9.10;;
65597;SDS011;52267;51.984;20.956;2023-02-05T02:40:35;17.00;;;9.30;;
65597;SDS011;52267;51.984;20.956;2023-02-05T02:43:14;18.50;;;9.40;;
65597;SDS011;52267;51.984;20.956;2023-02-05T02:45:55;17.50;;;9.10;;
65597;SDS011;52267;51.984;20.956;2023-02-05T02:48:27;16.60;;;8.10;;
65597;SDS011;52267;51.984;20.956;2023-02-05T02:50:57;18.10;;;8.90;;
65597;SDS011;52267;51.984;20.956;2023-02-05T02:53:28;17.60;;;7.80;;
65597;SDS011;52267;51.984;20.956;2023-02-05T02:56:00;16.00;;;8.10;;
65597;SDS011;52267;51.984;20.956;2023-02-05T02:58:38;13.10;;;8.10;;
65597;SDS011;52267;51.984;20.956;2023-02-05T03:01:09;16.70;;;8.20;;
65597;SDS011;52267;51.984;20.956;2023-02-05T03:03:41;21.10;;;9.10;;
65597;SDS011;52267;51.984;20.956;2023-02-05T03:06:12;18.30;;;8.20;;
65597;SDS011;52267;51.984;20.956;2023-02-05T03:09:00;15.80;;;7.50;;
65597;SDS011;52267;51.984;20.956;2023-02-05T03:11:28;15.60;;;7.20;;
65597;SDS011;52267;51.984;20.956;2023-02-05T03:13:56;16.60;;;7.50;;
65597;SDS011;52267;51.984;20.956;2023-02-05T03:16:25;11.20;;;5.70;;
65597;SDS011;52267;51.984;20.956;2023-02-05T03:18:54;13.50;;;6.60;;
65597;SDS011;52267;51.984;20.956;2023-02-05T03:21:25;14.20;;;6.80;;
65597;SDS011;52267;51.984;20.956;2023-02-05T03:23:55;13.40;;;6.10;;
65597;SDS011;52267;51.984;20.956;2023-02-05T03:26:27;13.00;;;7.00;;
65597;SDS011;52267;51.984;20.956;2023-02-05T03:29:01;11.80;;;6.30;;
65597;SDS011;52267;51.984;20.956;2023-02-05T03:35:35;13.70;;;5.90;;
65597;SDS011;52267;51.984;20.956;2023-02-05T03:40:45;15.00;;;6.00;;
65597;SDS011;52267;51.984;20.956;2023-02-05T03:43:47;15.90;;;6.20;;
65597;SDS011;52267;51.984;20.956;2023-02-05T03:46:29;8.30;;;4.60;;
65597;SDS011;52267;51.984;20.956;2023-02-05T03:49:21;11.20;;;4.50;;
65597;SDS011;52267;51.984;20.956;2023-02-05T03:52:03;11.80;;;4.80;;
65597;SDS011;52267;51.984;20.956;2023-02-05T03:55:06;11.30;;;5.00;;
65597;SDS011;52267;51.984;20.956;2023-02-05T04:00:25;10.80;;;4.90;;
65597;SDS011;52267;51.984;20.956;2023-02-05T04:02:53;12.60;;;5.40;;
65597;SDS011;52267;51.984;20.956;2023-02-05T04:05:20;10.20;;;5.20;;
65597;SDS011;52267;51.984;20.956;2023-02-05T04:07:49;11.80;;;5.40;;
65597;SDS011;52267;51.984;20.956;2023-02-05T04:10:18;10.30;;;5.00;;
65597;SDS011;52267;51.984;20.956;2023-02-05T04:12:45;13.60;;;6.10;;
65597;SDS011;52267;51.984;20.956;2023-02-05T04:15:12;13.70;;;5.20;;
65597;SDS011;52267;51.984;20.956;2023-02-05T04:17:39;12.40;;;5.60;;
65597;SDS011;52267;51.984;20.956;2023-02-05T04:20:07;12.90;;;5.60;;
65597;SDS011;52267;51.984;20.956;2023-02-05T04:22:35;12.60;;;5.30;;
65597;SDS011;52267;51.984;20.956;2023-02-05T04:25:02;12.30;;;5.20;;
65597;SDS011;52267;51.984;20.956;2023-02-05T04:27:29;10.40;;;5.40;;
65597;SDS011;52267;51.984;20.956;2023-02-05T04:29:57;10.90;;;3.90;;
65597;SDS011;52267;51.984;20.956;2023-02-05T04:32:24;9.30;;;4.70;;
65597;SDS011;52267;51.984;20.956;2023-02-05T04:34:51;10.70;;;4.80;;
65597;SDS011;52267;51.984;20.956;2023-02-05T04:37:18;8.80;;;3.80;;
65597;SDS011;52267;51.984;20.956;2023-02-05T04:39:46;11.10;;;5.40;;
65597;SDS011;52267;51.984;20.956;2023-02-05T04:42:13;7.90;;;4.50;;
65597;SDS011;52267;51.984;20.956;2023-02-05T04:44:40;11.10;;;5.30;;
65597;SDS011;52267;51.984;20.956;2023-02-05T04:47:07;12.50;;;5.90;;
65597;SDS011;52267;51.984;20.956;2023-02-05T04:49:34;13.10;;;6.50;;
65597;SDS011;52267;51.984;20.956;2023-02-05T04:52:01;14.00;;;5.10;;
65597;SDS011;52267;51.984;20.956;2023-02-05T04:54:29;13.00;;;5.00;;
65597;SDS011;52267;51.984;20.956;2023-02-05T04:56:57;13.90;;;5.50;;
65597;SDS011;52267;51.984;20.956;2023-02-05T04:59:24;14.40;;;6.30;;
65597;SDS011;52267;51.984;20.956;2023-02-05T05:01:51;9.50;;;4.90;;
65597;SDS011;52267;51.984;20.956;2023-02-05T05:04:18;12.40;;;6.00;;
65597;SDS011;52267;51.984;20.956;2023-02-05T05:06:45;11.20;;;5.10;;
65597;SDS011;52267;51.984;20.956;2023-02-05T05:09:13;12.10;;;6.20;;
65597;SDS011;52267;51.984;20.956;2023-02-05T05:11:40;11.60;;;5.60;;
65597;SDS011;52267;51.984;20.956;2023-02-05T05:14:07;11.20;;;5.30;;
65597;SDS011;52267;51.984;20.956;2023-02-05T05:16:34;11.50;;;5.90;;
65597;SDS011;52267;51.984;20.956;2023-02-05T05:19:01;11.20;;;4.90;;
65597;SDS011;52267;51.984;20.956;2023-02-05T05:21:28;9.90;;;5.30;;
65597;SDS011;52267;51.984;20.956;2023-02-05T05:23:55;13.00;;;6.00;;
65597;SDS011;52267;51.984;20.956;2023-02-05T05:26:22;11.60;;;5.00;;
65597;SDS011;52267;51.984;20.956;2023-02-05T05:28:53;12.60;;;5.70;;
65597;SDS011;52267;51.984;20.956;2023-02-05T05:31:22;10.10;;;5.50;;
65597;SDS011;52267;51.984;20.956;2023-02-05T05:33:50;12.70;;;5.50;;
65597;SDS011;52267;51.984;20.956;2023-02-05T05:36:17;10.40;;;5.30;;
65597;SDS011;52267;51.984;20.956;2023-02-05T05:38:45;12.40;;;4.50;;
65597;SDS011;52267;51.984;20.956;2023-02-05T05:41:19;10.80;;;4.70;;
65597;SDS011;52267;51.984;20.956;2023-02-05T05:44:07;13.20;;;4.90;;
65597;SDS011;52267;51.984;20.956;2023-02-05T05:46:35;7.90;;;4.20;;
65597;SDS011;52267;51.984;20.956;2023-02-05T05:49:02;9.90;;;5.00;;
65597;SDS011;52267;51.984;20.956;2023-02-05T05:51:30;13.30;;;5.50;;
65597;SDS011;52267;51.984;20.956;2023-02-05T05:53:58;13.10;;;5.90;;
65597;SDS011;52267;51.984;20.956;2023-02-05T05:56:26;12.40;;;5.50;;
65597;SDS011;52267;51.984;20.956;2023-02-05T05:58:53;14.10;;;5.70;;
65597;SDS011;52267;51.984;20.956;2023-02-05T06:01:20;10.80;;;4.60;;
65597;SDS011;52267;51.984;20.956;2023-02-05T06:03:49;16.80;;;5.90;;
65597;SDS011;52267;51.984;20.956;2023-02-05T06:06:16;10.60;;;5.80;;
65597;SDS011;52267;51.984;20.956;2023-02-05T06:08:43;17.00;;;6.70;;
65597;SDS011;52267;51.984;20.956;2023-02-05T06:11:10;12.80;;;6.80;;
65597;SDS011;52267;51.984;20.956;2023-02-05T06:13:38;12.90;;;6.00;;
65597;SDS011;52267;51.984;20.956;2023-02-05T06:16:05;15.70;;;8.20;;
65597;SDS011;52267;51.984;20.956;2023-02-05T06:18:33;14.80;;;6.40;;
65597;SDS011;52267;51.984;20.956;2023-02-05T06:21:00;11.20;;;5.30;;
65597;SDS011;52267;51.984;20.956;2023-02-05T06:23:29;12.20;;;5.60;;
65597;SDS011;52267;51.984;20.956;2023-02-05T06:25:56;9.80;;;4.80;;
65597;SDS011;52267;51.984;20.956;2023-02-05T06:28:24;9.90;;;5.00;;
65597;SDS011;52267;51.984;20.956;2023-02-05T06:30:51;11.10;;;5.40;;
65597;SDS011;52267;51.984;20.956;2023-02-05T06:33:18;13.00;;;5.80;;
65597;SDS011;52267;51.984;20.956;2023-02-05T06:35:45;10.80;;;5.80;;
65597;SDS011;52267;51.984;20.956;2023-02-05T06:38:12;12.30;;;5.40;;
65597;SDS011;52267;51.984;20.956;2023-02-05T06:40:39;11.20;;;5.30;;
65597;SDS011;52267;51.984;20.956;2023-02-05T06:43:06;10.10;;;5.90;;
65597;SDS011;52267;51.984;20.956;2023-02-05T06:45:34;11.40;;;5.70;;
65597;SDS011;52267;51.984;20.956;2023-02-05T06:48:01;11.00;;;5.30;;
65597;SDS011;52267;51.984;20.956;2023-02-05T06:50:28;10.70;;;5.40;;
65597;SDS011;52267;51.984;20.956;2023-02-05T06:52:55;10.20;;;5.20;;
65597;SDS011;52267;51.984;20.956;2023-02-05T06:55:22;11.40;;;5.50;;
65597;SDS011;52267;51.984;20.956;2023-02-05T06:57:49;12.60;;;6.10;;
65597;SDS011;52267;51.984;20.956;2023-02-05T07:00:17;10.40;;;5.50;;
65597;SDS011;52267;51.984;20.956;2023-02-05T07:02:44;8.70;;;5.10;;
65597;SDS011;52267;51.984;20.956;2023-02-05T07:05:11;14.20;;;5.60;;
65597;SDS011;52267;51.984;20.956;2023-02-05T07:07:38;11.60;;;5.30;;
65597;SDS011;52267;51.984;20.956;2023-02-05T07:10:06;12.10;;;5.80;;
65597;SDS011;52267;51.984;20.956;2023-02-05T07:12:33;9.10;;;4.60;;
65597;SDS011;52267;51.984;20.956;2023-02-05T07:15:00;10.60;;;5.50;;
65597;SDS011;52267;51.984;20.956;2023-02-05T07:17:28;11.80;;;5.80;;
65597;SDS011;52267;51.984;20.956;2023-02-05T07:19:55;13.10;;;6.00;;
65597;SDS011;52267;51.984;20.956;2023-02-05T07:22:22;9.10;;;5.50;;
65597;SDS011;52267;51.984;20.956;2023-02-05T07:24:49;12.70;;;5.20;;
65597;SDS011;52267;51.984;20.956;2023-02-05T07:27:16;8.70;;;4.90;;
65597;SDS011;52267;51.984;20.956;2023-02-05T07:29:43;8.70;;;4.80;;
65597;SDS011;52267;51.984;20.956;2023-02-05T07:32:10;11.50;;;5.40;;
65597;SDS011;52267;51.984;20.956;2023-02-05T07:34:37;12.70;;;6.10;;
65597;SDS011;52267;51.984;20.956;2023-02-05T07:37:05;12.50;;;5.80;;
65597;SDS011;52267;51.984;20.956;2023-02-05T07:39:32;12.20;;;5.90;;
65597;SDS011;52267;51.984;20.956;2023-02-05T07:41:59;10.00;;;5.40;;
65597;SDS011;52267;51.984;20.956;2023-02-05T07:44:27;13.00;;;5.80;;
65597;SDS011;52267;51.984;20.956;2023-02-05T07:46:54;10.80;;;5.20;;
65597;SDS011;52267;51.984;20.956;2023-02-05T07:49:21;11.60;;;5.80;;
65597;SDS011;52267;51.984;20.956;2023-02-05T07:51:48;14.30;;;6.20;;
65597;SDS011;52267;51.984;20.956;2023-02-05T07:54:15;12.60;;;5.50;;
65597;SDS011;52267;51.984;20.956;2023-02-05T07:56:42;11.00;;;5.20;;
65597;SDS011;52267;51.984;20.956;2023-02-05T07:59:10;10.00;;;5.30;;
65597;SDS011;52267;51.984;20.956;2023-02-05T08:01:37;15.50;;;6.80;;
65597;SDS011;52267;51.984;20.956;2023-02-05T08:04:04;11.80;;;5.50;;
65597;SDS011;52267;51.984;20.956;2023-02-05T08:06:32;14.10;;;6.10;;
65597;SDS011;52267;51.984;20.956;2023-02-05T08:09:00;12.80;;;6.40;;
65597;SDS011;52267;51.984;20.956;2023-02-05T08:11:27;9.90;;;5.10;;
65597;SDS011;52267;51.984;20.956;2023-02-05T08:13:54;16.70;;;7.20;;
65597;SDS011;52267;51.984;20.956;2023-02-05T08:16:21;21.60;;;7.10;;
65597;SDS011;52267;51.984;20.956;2023-02-05T08:18:49;15.30;;;6.80;;
65597;SDS011;52267;51.984;20.956;2023-02-05T08:21:17;14.50;;;7.10;;
65597;SDS011;52267;51.984;20.956;2023-02-05T08:23:45;15.70;;;6.50;;
65597;SDS011;52267;51.984;20.956;2023-02-05T08:26:12;13.60;;;6.30;;
65597;SDS011;52267;51.984;20.956;2023-02-05T08:28:41;12.80;;;6.00;;
65597;SDS011;52267;51.984;20.956;2023-02-05T08:31:11;14.30;;;6.60;;
65597;SDS011;52267;51.984;20.956;2023-02-05T08:33:39;15.50;;;7.00;;
65597;SDS011;52267;51.984;20.956;2023-02-05T08:36:07;11.60;;;6.40;;
65597;SDS011;52267;51.984;20.956;2023-02-05T08:38:35;20.10;;;7.30;;
65597;SDS011;52267;51.984;20.956;2023-02-05T08:41:04;16.20;;;7.50;;
65597;SDS011;52267;51.984;20.956;2023-02-05T08:43:46;16.10;;;6.70;;
65597;SDS011;52267;51.984;20.956;2023-02-05T08:46:21;15.80;;;6.00;;
65597;SDS011;52267;51.984;20.956;2023-02-05T08:48:51;15.10;;;6.50;;
65597;SDS011;52267;51.984;20.956;2023-02-05T08:51:19;13.50;;;5.80;;
65597;SDS011;52267;51.984;20.956;2023-02-05T08:53:48;15.80;;;6.80;;
65597;SDS011;52267;51.984;20.956;2023-02-05T08:56:16;11.80;;;6.30;;
65597;SDS011;52267;51.984;20.956;2023-02-05T08:58:43;13.90;;;6.00;;
65597;SDS011;52267;51.984;20.956;2023-02-05T09:01:13;13.10;;;7.20;;
65597;SDS011;52267;51.984;20.956;2023-02-05T09:03:43;13.40;;;5.90;;
65597;SDS011;52267;51.984;20.956;2023-02-05T09:06:14;14.50;;;7.20;;
65597;SDS011;52267;51.984;20.956;2023-02-05T09:08:41;10.70;;;6.10;;
65597;SDS011;52267;51.984;20.956;2023-02-05T09:11:09;9.70;;;5.50;;
65597;SDS011;52267;51.984;20.956;2023-02-05T09:13:39;9.30;;;5.20;;
65597;SDS011;52267;51.984;20.956;2023-02-05T09:16:09;10.90;;;5.70;;
65597;SDS011;52267;51.984;20.956;2023-02-05T09:18:37;11.90;;;6.40;;
65597;SDS011;52267;51.984;20.956;2023-02-05T09:21:06;10.40;;;5.50;;
65597;SDS011;52267;51.984;20.956;2023-02-05T09:23:34;10.50;;;5.30;;
65597;SDS011;52267;51.984;20.956;2023-02-05T09:26:02;10.50;;;6.70;;
65597;SDS011;52267;51.984;20.956;2023-02-05T09:28:29;12.60;;;5.70;;
65597;SDS011;52267;51.984;20.956;2023-02-05T09:30:56;10.50;;;6.10;;
65597;SDS011;52267;51.984;20.956;2023-02-05T09:33:23;10.10;;;5.40;;
65597;SDS011;52267;51.984;20.956;2023-02-05T09:35:50;11.80;;;5.30;;
65597;SDS011;52267;51.984;20.956;2023-02-05T09:38:17;11.90;;;6.20;;
65597;SDS011;52267;51.984;20.956;2023-02-05T09:41:04;13.30;;;5.40;;
65597;SDS011;52267;51.984;20.956;2023-02-05T09:43:47;8.40;;;4.20;;
65597;SDS011;52267;51.984;20.956;2023-02-05T09:46:38;14.00;;;6.30;;
65597;SDS011;52267;51.984;20.956;2023-02-05T09:49:17;9.20;;;5.30;;
65597;SDS011;52267;51.984;20.956;2023-02-05T09:52:01;11.00;;;5.50;;
65597;SDS011;52267;51.984;20.956;2023-02-05T09:54:34;8.60;;;4.60;;
65597;SDS011;52267;51.984;20.956;2023-02-05T09:57:32;9.90;;;5.50;;
65597;SDS011;52267;51.984;20.956;2023-02-05T10:00:04;10.30;;;5.70;;
65597;SDS011;52267;51.984;20.956;2023-02-05T10:02:49;11.60;;;5.90;;
65597;SDS011;52267;51.984;20.956;2023-02-05T10:05:23;10.10;;;5.30;;
65597;SDS011;52267;51.984;20.956;2023-02-05T10:11:00;12.00;;;5.50;;
65597;SDS011;52267;51.984;20.956;2023-02-05T10:13:31;11.40;;;6.10;;
65597;SDS011;52267;51.984;20.956;2023-02-05T10:16:27;9.30;;;5.30;;
65597;SDS011;52267;51.984;20.956;2023-02-05T10:19:34;11.40;;;5.90;;
65597;SDS011;52267;51.984;20.956;2023-02-05T10:25:23;11.90;;;5.90;;
65597;SDS011;52267;51.984;20.956;2023-02-05T10:28:37;10.90;;;5.60;;
65597;SDS011;52267;51.984;20.956;2023-02-05T10:34:00;10.20;;;5.50;;
65597;SDS011;52267;51.984;20.956;2023-02-05T10:36:51;8.40;;;5.10;;
65597;SDS011;52267;51.984;20.956;2023-02-05T10:39:32;10.40;;;5.90;;
65597;SDS011;52267;51.984;20.956;2023-02-05T10:42:36;12.20;;;5.90;;
65597;SDS011;52267;51.984;20.956;2023-02-05T10:45:26;12.20;;;6.00;;
65597;SDS011;52267;51.984;20.956;2023-02-05T10:53:50;9.80;;;5.30;;
65597;SDS011;52267;51.984;20.956;2023-02-05T10:56:18;11.80;;;6.90;;
65597;SDS011;52267;51.984;20.956;2023-02-05T10:58:57;12.60;;;8.40;;
65597;SDS011;52267;51.984;20.956;2023-02-05T11:01:33;13.30;;;6.70;;
65597;SDS011;52267;51.984;20.956;2023-02-05T11:04:11;17.10;;;8.30;;
65597;SDS011;52267;51.984;20.956;2023-02-05T11:06:43;10.60;;;7.30;;
65597;SDS011;52267;51.984;20.956;2023-02-05T11:12:05;10.30;;;5.60;;
65597;SDS011;52267;51.984;20.956;2023-02-05T11:14:43;8.80;;;5.50;;
65597;SDS011;52267;51.984;20.956;2023-02-05T11:17:22;9.10;;;5.20;;
65597;SDS011;52267;51.984;20.956;2023-02-05T11:20:20;9.00;;;5.40;;
65597;SDS011;52267;51.984;20.956;2023-02-05T11:23:04;11.70;;;6.10;;
65597;SDS011;52267;51.984;20.956;2023-02-05T11:31:25;11.60;;;5.10;;
65597;SDS011;52267;51.984;20.956;2023-02-05T11:34:11;9.00;;;5.10;;
65597;SDS011;52267;51.984;20.956;2023-02-05T11:36:54;9.90;;;4.70;;
65597;SDS011;52267;51.984;20.956;2023-02-05T11:39:35;9.10;;;5.10;;
65597;SDS011;52267;51.984;20.956;2023-02-05T11:42:30;10.80;;;4.80;;
65597;SDS011;52267;51.984;20.956;2023-02-05T11:45:00;8.30;;;4.40;;
65597;SDS011;52267;51.984;20.956;2023-02-05T11:47:36;10.00;;;4.90;;
65597;SDS011;52267;51.984;20.956;2023-02-05T11:50:21;9.10;;;4.40;;
65597;SDS011;52267;51.984;20.956;2023-02-05T11:52:51;10.30;;;5.70;;
65597;SDS011;52267;51.984;20.956;2023-02-05T11:55:30;11.10;;;5.10;;
65597;SDS011;52267;51.984;20.956;2023-02-05T11:58:02;11.40;;;5.20;;
65597;SDS011;52267;51.984;20.956;2023-02-05T12:00:32;8.70;;;5.10;;
65597;SDS011;52267;51.984;20.956;2023-02-05T12:03:17;11.70;;;5.30;;
65597;SDS011;52267;51.984;20.956;2023-02-05T12:06:19;9.20;;;4.80;;
65597;SDS011;52267;51.984;20.956;2023-02-05T12:08:48;11.30;;;5.60;;
65597;SDS011;52267;51.984;20.956;2023-02-05T12:11:37;9.40;;;5.00;;
65597;SDS011;52267;51.984;20.956;2023-02-05T12:14:36;10.20;;;5.40;;
65597;SDS011;52267;51.984;20.956;2023-02-05T12:17:32;10.70;;;5.50;;
65597;SDS011;52267;51.984;20.956;2023-02-05T12:29:33;12.20;;;6.70;;
65597;SDS011;52267;51.984;20.956;2023-02-05T12:32:36;11.20;;;6.30;;
65597;SDS011;52267;51.984;20.956;2023-02-05T12:35:19;14.50;;;5.90;;
65597;SDS011;52267;51.984;20.956;2023-02-05T12:50:13;11.70;;;6.50;;
65597;SDS011;52267;51.984;20.956;2023-02-05T13:02:05;12.20;;;5.60;;
65597;SDS011;52267;51.984;20.956;2023-02-05T13:04:40;10.60;;;5.70;;
65597;SDS011;52267;51.984;20.956;2023-02-05T13:10:54;12.10;;;6.00;;
65597;SDS011;52267;51.984;20.956;2023-02-05T13:13:27;13.30;;;6.10;;
65597;SDS011;52267;51.984;20.956;2023-02-05T13:16:06;12.00;;;6.10;;
65597;SDS011;52267;51.984;20.956;2023-02-05T13:18:41;10.20;;;5.60;;
65597;SDS011;52267;51.984;20.956;2023-02-05T13:21:23;11.70;;;6.40;;
65597;SDS011;52267;51.984;20.956;2023-02-05T13:27:29;11.90;;;6.20;;
65597;SDS011;52267;51.984;20.956;2023-02-05T13:30:24;10.70;;;5.00;;
65597;SDS011;52267;51.984;20.956;2023-02-05T13:32:59;11.80;;;5.30;;
65597;SDS011;52267;51.984;20.956;2023-02-05T13:35:34;13.80;;;6.60;;
65597;SDS011;52267;51.984;20.956;2023-02-05T13:38:35;12.70;;;6.70;;
65597;SDS011;52267;51.984;20.956;2023-02-05T13:44:49;11.50;;;6.30;;
65597;SDS011;52267;51.984;20.956;2023-02-05T13:53:48;9.80;;;5.40;;
65597;SDS011;52267;51.984;20.956;2023-02-05T13:56:46;11.40;;;5.10;;
65597;SDS011;52267;51.984;20.956;2023-02-05T13:59:36;11.20;;;6.00;;
65597;SDS011;52267;51.984;20.956;2023-02-05T14:05:01;12.20;;;5.40;;
65597;SDS011;52267;51.984;20.956;2023-02-05T14:10:05;11.50;;;5.20;;
65597;SDS011;52267;51.984;20.956;2023-02-05T14:12:47;11.70;;;5.40;;
65597;SDS011;52267;51.984;20.956;2023-02-05T14:22:58;9.40;;;5.10;;
65597;SDS011;52267;51.984;20.956;2023-02-05T14:30:50;10.90;;;6.20;;
65597;SDS011;52267;51.984;20.956;2023-02-05T14:33:41;10.30;;;5.30;;
65597;SDS011;52267;51.984;20.956;2023-02-05T14:39:17;12.60;;;6.40;;
65597;SDS011;52267;51.984;20.956;2023-02-05T14:41:55;10.60;;;5.30;;
65597;SDS011;52267;51.984;20.956;2023-02-05T14:44:29;14.20;;;6.30;;
65597;SDS011;52267;51.984;20.956;2023-02-05T14:53:03;9.90;;;5.50;;
65597;SDS011;52267;51.984;20.956;2023-02-05T14:55:38;12.00;;;6.10;;
65597;SDS011;52267;51.984;20.956;2023-02-05T14:58:37;11.90;;;5.40;;
65597;SDS011;52267;51.984;20.956;2023-02-05T15:04:03;10.90;;;5.60;;
65597;SDS011;52267;51.984;20.956;2023-02-05T15:06:39;12.60;;;6.30;;
65597;SDS011;52267;51.984;20.956;2023-02-05T15:09:18;13.10;;;6.20;;
65597;SDS011;52267;51.984;20.956;2023-02-05T15:14:56;11.10;;;6.00;;
65597;SDS011;52267;51.984;20.956;2023-02-05T15:20:12;12.90;;;6.30;;
65597;SDS011;52267;51.984;20.956;2023-02-05T15:23:00;11.50;;;5.70;;
65597;SDS011;52267;51.984;20.956;2023-02-05T15:25:42;9.70;;;5.60;;
65597;SDS011;52267;51.984;20.956;2023-02-05T15:28:58;13.00;;;6.50;;
65597;SDS011;52267;51.984;20.956;2023-02-05T15:31:44;9.20;;;5.40;;
65597;SDS011;52267;51.984;20.956;2023-02-05T15:34:33;10.30;;;5.80;;
65597;SDS011;52267;51.984;20.956;2023-02-05T15:42:42;12.20;;;5.90;;
65597;SDS011;52267;51.984;20.956;2023-02-05T15:45:30;10.90;;;5.70;;
65597;SDS011;52267;51.984;20.956;2023-02-05T15:50:55;9.50;;;5.70;;
65597;SDS011;52267;51.984;20.956;2023-02-05T15:53:35;13.10;;;6.60;;
65597;SDS011;52267;51.984;20.956;2023-02-05T15:56:13;14.30;;;6.80;;
65597;SDS011;52267;51.984;20.956;2023-02-05T15:58:53;10.60;;;6.20;;
65597;SDS011;52267;51.984;20.956;2023-02-05T16:04:28;14.30;;;7.20;;
65597;SDS011;52267;51.984;20.956;2023-02-05T16:07:15;10.80;;;6.40;;
65597;SDS011;52267;51.984;20.956;2023-02-05T16:09:47;15.20;;;6.90;;
65597;SDS011;52267;51.984;20.956;2023-02-05T16:12:19;12.30;;;6.80;;
65597;SDS011;52267;51.984;20.956;2023-02-05T16:15:03;15.70;;;7.70;;
65597;SDS011;52267;51.984;20.956;2023-02-05T16:17:41;12.10;;;6.10;;
65597;SDS011;52267;51.984;20.956;2023-02-05T16:20:27;13.60;;;6.80;;
65597;SDS011;52267;51.984;20.956;2023-02-05T16:23:04;14.00;;;7.50;;
65597;SDS011;52267;51.984;20.956;2023-02-05T16:25:51;13.90;;;6.50;;
65597;SDS011;52267;51.984;20.956;2023-02-05T16:28:41;13.20;;;6.70;;
65597;SDS011;52267;51.984;20.956;2023-02-05T16:31:20;9.80;;;5.60;;
65597;SDS011;52267;51.984;20.956;2023-02-05T16:34:02;13.30;;;6.80;;
65597;SDS011;52267;51.984;20.956;2023-02-05T16:36:38;11.40;;;5.80;;
65597;SDS011;52267;51.984;20.956;2023-02-05T16:39:26;13.00;;;6.40;;
65597;SDS011;52267;51.984;20.956;2023-02-05T16:45:21;12.10;;;6.70;;
65597;SDS011;52267;51.984;20.956;2023-02-05T16:48:22;14.00;;;6.80;;
65597;SDS011;52267;51.984;20.956;2023-02-05T16:50:53;12.30;;;6.80;;
65597;SDS011;52267;51.984;20.956;2023-02-05T16:53:26;9.50;;;6.00;;
65597;SDS011;52267;51.984;20.956;2023-02-05T16:56:00;10.30;;;5.90;;
65597;SDS011;52267;51.984;20.956;2023-02-05T16:58:37;14.10;;;6.80;;
65597;SDS011;52267;51.984;20.956;2023-02-05T17:01:12;11.40;;;6.10;;
65597;SDS011;52267;51.984;20.956;2023-02-05T17:03:47;14.10;;;6.50;;
65597;SDS011;52267;51.984;20.956;2023-02-05T17:06:17;13.10;;;7.40;;
65597;SDS011;52267;51.984;20.956;2023-02-05T17:08:53;15.10;;;6.70;;
65597;SDS011;52267;51.984;20.956;2023-02-05T17:11:38;16.10;;;7.40;;
65597;SDS011;52267;51.984;20.956;2023-02-05T17:14:28;15.50;;;8.10;;
65597;SDS011;52267;51.984;20.956;2023-02-05T17:17:17;16.50;;;8.40;;
65597;SDS011;52267;51.984;20.956;2023-02-05T17:28:17;19.20;;;10.30;;
65597;SDS011;52267;51.984;20.956;2023-02-05T17:30:55;21.70;;;9.40;;